Time;durP1;ratioP1;P1;durP2;ratioP2;P2;SDS_P1;SDS_P2;PMS_P1;PMS_P2;Temp;Humidity;BMP_temperature;BMP_pressure;BME280_temperature;BME280_humidity;BME280_pressure;Samples;Min_cycle;Max_cycle;Signal;HPM_P1;HPM_P2
2022/09/29 00:00:25;;;;;;;3.38;3.08;;;;;;;14.40;93.94;96106.78;5084024;28;20138;-64
2022/09/29 00:02:52;;;;;;;4.47;3.30;;;;;;;13.89;94.76;96026.22;5084143;28;20503;-64
2022/09/29 00:05:20;;;;;;;6.00;3.30;;;;;;;13.95;96.09;96057.97;5084441;28;20249;-65
2022/09/29 00:07:47;;;;;;;5.25;3.88;;;;;;;14.23;97.13;96118.88;5083460;28;20481;-65
2022/09/29 00:10:13;;;;;;;4.60;3.08;;;;;;;14.35;94.81;96115.59;5084831;28;20052;-65
2022/09/29 00:12:40;;;;;;;6.50;3.13;;;;;;;14.30;94.17;96113.28;5084539;28;20554;-65
2022/09/29 00:15:07;;;;;;;4.30;3.30;;;;;;;14.22;93.55;96104.19;5084360;28;20491;-67
2022/09/29 00:17:34;;;;;;;4.25;3.10;;;;;;;14.26;93.83;96118.06;5084525;28;20487;-65
2022/09/29 00:20:00;;;;;;;4.28;3.30;;;;;;;14.21;93.90;96110.19;5083140;28;20137;-66
2022/09/29 00:22:27;;;;;;;9.07;3.17;;;;;;;14.10;94.72;96093.56;5084631;28;20600;-65
2022/09/29 00:24:54;;;;;;;3.38;3.08;;;;;;;13.92;94.84;96067.16;5083410;28;20134;-65
2022/09/29 00:27:20;;;;;;;5.25;3.42;;;;;;;14.09;96.19;96107.91;5084323;28;20095;-65
2022/09/29 00:29:47;;;;;;;7.32;3.60;;;;;;;14.06;97.05;96114.31;5084633;28;20052;-65
2022/09/29 00:32:14;;;;;;;6.65;3.67;;;;;;;14.07;96.15;96104.78;5084521;28;20083;-65
2022/09/29 00:34:40;;;;;;;4.78;3.47;;;;;;;14.08;96.78;96100.78;5084326;28;20148;-64
2022/09/29 00:37:07;;;;;;;5.72;3.30;;;;;;;14.16;96.85;96105.84;5082856;28;20091;-65
2022/09/29 00:39:33;;;;;;;4.00;3.47;;;;;;;14.15;94.57;96100.69;5082733;28;20135;-64
2022/09/29 00:42:00;;;;;;;7.63;3.80;;;;;;;13.79;95.54;96066.91;5084279;28;20146;-64
2022/09/29 00:44:58;;;;;;;3.22;2.92;;;;;;;14.04;96.26;96105.59;5084453;28;20083;-65
2022/09/29 00:47:26;;;;;;;5.75;3.05;;;;;;;13.96;95.51;96104.09;5084060;28;20083;-65
2022/09/29 00:49:56;;;;;;;3.90;3.38;;;;;;;13.96;96.40;96107.66;5084133;28;20081;-66
2022/09/29 00:52:34;;;;;;;5.28;3.03;;;;;;;13.54;96.11;96044.13;5081951;28;20133;-65
2022/09/29 00:55:03;;;;;;;6.95;3.25;;;;;;;13.83;96.27;96112.19;5064035;28;20996;-65
2022/09/29 00:57:35;;;;;;;6.28;3.13;;;;;;;13.92;96.34;96111.69;5062798;28;20092;-65
2022/09/29 01:00:11;;;;;;;4.70;3.38;;;;;;;13.92;96.17;96114.47;5062856;28;20107;-63
2022/09/29 01:02:43;;;;;;;3.50;3.20;;;;;;;13.86;97.82;96116.16;5063977;28;20143;-65
2022/09/29 01:05:17;;;;;;;4.78;3.17;;;;;;;13.74;97.70;96105.53;5062602;28;20503;-64
2022/09/29 01:07:45;;;;;;;5.05;4.22;;;;;;;13.89;97.78;96129.22;5064304;28;20088;-66
2022/09/29 01:10:15;;;;;;;4.18;3.28;;;;;;;13.49;97.37;96097.44;5065929;28;20079;-65
2022/09/29 01:12:45;;;;;;;11.05;5.57;;;;;;;13.62;99.27;96141.00;5067825;28;20110;-66
2022/09/29 01:15:15;;;;;;;4.75;3.40;;;;;;;13.45;98.61;96089.09;5066080;28;20048;-64
2022/09/29 01:17:41;;;;;;;5.13;3.65;;;;;;;13.48;98.32;96107.75;5065964;28;20541;-65
2022/09/29 01:20:22;;;;;;;5.47;3.92;;;;;;;13.64;98.59;96121.16;5066046;28;20060;-65
2022/09/29 01:23:10;;;;;;;5.57;3.72;;;;;;;13.80;98.75;96128.94;5066326;28;20697;-64
2022/09/29 01:26:20;;;;;;;4.90;4.15;;;;;;;13.75;99.19;96126.59;5067502;28;20508;-65
2022/09/29 01:29:15;;;;;;;6.50;4.40;;;;;;;13.68;100.00;96139.38;5066303;28;20155;-64
2022/09/29 01:31:56;;;;;;;9.70;8.25;;;;;;;13.57;100.00;96124.78;5067403;28;20135;-65
2022/09/29 01:34:26;;;;;;;15.68;9.85;;;;;;;13.67;100.00;96137.00;5065960;28;20052;-65
2022/09/29 01:37:05;;;;;;;9.38;6.35;;;;;;;13.64;99.78;96144.19;5065517;28;20062;-65
2022/09/29 01:39:37;;;;;;;6.43;4.47;;;;;;;13.63;100.00;96148.19;5066988;28;20048;-64
2022/09/29 01:42:11;;;;;;;4.20;3.80;;;;;;;13.43;99.34;96118.56;5066683;28;20132;-66
2022/09/29 01:44:46;;;;;;;6.22;3.33;;;;;;;13.64;98.85;96144.19;5066782;28;20509;-65
2022/09/29 01:47:38;;;;;;;5.45;3.47;;;;;;;13.49;98.24;96120.47;5066796;28;20080;-66
2022/09/29 01:50:12;;;;;;;4.53;3.42;;;;;;;13.49;100.00;96139.16;5065168;28;20052;-64
2022/09/29 01:52:44;;;;;;;5.50;3.58;;;;;;;13.49;99.94;96144.72;5068036;28;20499;-65
2022/09/29 01:55:19;;;;;;;3.83;3.53;;;;;;;13.45;99.53;96161.44;5086515;28;20147;-66
2022/09/29 01:57:54;;;;;;;4.57;3.50;;;;;;;13.16;99.63;96121.16;5085675;28;20424;-65
2022/09/29 02:00:22;;;;;;;5.25;3.08;;;;;;;13.35;98.72;96154.00;5087026;28;20147;-66
2022/09/29 02:03:15;;;;;;;5.93;3.28;;;;;;;13.22;100.00;96147.34;5086917;28;20056;-64
2022/09/29 02:05:52;;;;;;;5.32;3.45;;;;;;;13.22;100.00;96150.13;5084349;28;20048;-65
2022/09/29 02:08:37;;;;;;;4.63;3.25;;;;;;;13.19;100.00;96139.81;5086791;28;20074;-65
2022/09/29 02:11:11;;;;;;;5.07;3.38;;;;;;;13.10;100.00;96136.69;5085011;28;20048;-64
2022/09/29 02:14:02;;;;;;;3.78;3.47;;;;;;;13.05;100.00;96139.91;5086557;28;20105;-65
2022/09/29 02:16:31;;;;;;;4.78;3.20;;;;;;;13.02;100.00;96135.19;5086404;28;20056;-65
2022/09/29 02:19:06;;;;;;;5.13;3.67;;;;;;;13.06;100.00;96152.63;5085389;28;20048;-65
2022/09/29 02:21:33;;;;;;;4.15;3.55;;;;;;;13.08;100.00;96150.22;5086381;28;20135;-65
2022/09/29 02:24:00;;;;;;;4.55;3.53;;;;;;;13.04;100.00;96146.66;5085083;28;20131;-65
2022/09/29 02:26:34;;;;;;;8.45;3.65;;;;;;;13.08;100.00;96155.78;5084915;28;20361;-65
2022/09/29 02:29:03;;;;;;;6.63;3.22;;;;;;;12.60;100.00;96140.97;5086867;28;20506;-66
2022/09/29 02:31:31;;;;;;;7.65;3.50;;;;;;;12.54;100.00;96086.22;5086135;28;20518;-65
2022/09/29 02:34:01;;;;;;;3.75;3.10;;;;;;;12.73;100.00;96142.09;5086759;28;20467;-65
2022/09/29 02:37:03;;;;;;;3.97;3.53;;;;;;;12.99;100.00;96157.41;5084863;28;20164;-64
2022/09/29 02:39:39;;;;;;;7.22;4.25;;;;;;;12.93;100.00;96159.81;5084142;28;20514;-64
2022/09/29 02:42:21;;;;;;;6.93;4.90;;;;;;;12.85;100.00;96169.38;5086266;28;20117;-65
2022/09/29 02:44:57;;;;;;;10.63;5.70;;;;;;;12.78;100.00;96163.09;5086143;28;20534;-64
2022/09/29 02:47:44;;;;;;;8.05;4.65;;;;;;;12.28;100.00;96093.13;5084931;28;20044;-65
2022/09/29 02:50:39;;;;;;;9.52;5.03;;;;;;;12.68;100.00;96159.16;5085558;28;20486;-65
2022/09/29 02:53:12;;;;;;;6.22;5.05;;;;;;;12.46;100.00;96120.78;5085866;28;20127;-64
2022/09/29 02:55:56;;;;;;;9.35;5.25;;;;;;;12.74;100.00;96157.53;5085830;28;20051;-65
2022/09/29 02:59:03;;;;;;;4.50;4.10;;;;;;;12.83;100.00;96148.78;5085969;28;20059;-64
2022/09/29 03:01:31;;;;;;;8.68;4.25;;;;;;;12.80;100.00;96161.50;5079404;28;20143;-64
2022/09/29 03:03:58;;;;;;;5.97;4.28;;;;;;;12.72;100.00;96165.53;5084218;28;20059;-65
2022/09/29 03:06:30;;;;;;;5.45;3.60;;;;;;;12.67;100.00;96156.81;5085247;28;20587;-63
2022/09/29 03:08:56;;;;;;;5.15;3.92;;;;;;;12.73;100.00;96164.31;5085904;28;20087;-64
2022/09/29 03:11:23;;;;;;;5.60;3.67;;;;;;;12.61;100.00;96164.78;5084055;28;20109;-64
2022/09/29 03:13:50;;;;;;;5.20;3.78;;;;;;;12.64;100.00;96175.09;5084066;28;20129;-64
2022/09/29 03:16:16;;;;;;;13.40;7.25;;;;;;;12.50;100.00;96166.81;5085052;28;20139;-65
2022/09/29 03:18:43;;;;;;;7.78;5.82;;;;;;;12.22;100.00;96122.50;5085437;28;20052;-65
2022/09/29 03:21:10;;;;;;;7.30;4.68;;;;;;;12.52;100.00;96166.41;5085118;28;20570;-65
2022/09/29 03:23:36;;;;;;;6.35;5.03;;;;;;;12.42;100.00;96173.59;5083843;28;20091;-65
2022/09/29 03:26:03;;;;;;;8.18;5.95;;;;;;;12.43;100.00;96164.06;5084227;28;20095;-64
2022/09/29 03:28:29;;;;;;;6.50;4.43;;;;;;;12.34;100.00;96160.94;5085372;28;20080;-64
2022/09/29 03:31:04;;;;;;;6.03;3.75;;;;;;;12.38;100.00;96172.81;5084939;28;20507;-64
2022/09/29 03:33:31;;;;;;;6.30;4.65;;;;;;;12.40;100.00;96169.63;5084753;28;20090;-65
2022/09/29 03:35:58;;;;;;;8.30;5.10;;;;;;;11.96;100.00;96101.59;5085214;28;20088;-64
2022/09/29 03:38:25;;;;;;;7.22;4.45;;;;;;;12.19;100.00;96131.63;5085754;28;20125;-64
2022/09/29 03:40:51;;;;;;;8.57;4.05;;;;;;;12.38;100.00;96175.59;5084742;28;20476;-65
2022/09/29 03:43:18;;;;;;;4.60;3.42;;;;;;;12.36;100.00;96179.97;5085095;28;20048;-64
2022/09/29 03:45:52;;;;;;;5.30;4.00;;;;;;;12.35;100.00;96162.50;5084552;28;20104;-65
2022/09/29 03:48:20;;;;;;;5.38;3.60;;;;;;;12.39;100.00;96173.59;5083425;28;20047;-65
2022/09/29 03:50:51;;;;;;;6.00;3.60;;;;;;;12.40;100.00;96153.75;5083417;28;20476;-65
2022/09/29 03:53:17;;;;;;;6.43;3.92;;;;;;;12.34;100.00;96158.16;5085215;28;20138;-64
2022/09/29 03:55:48;;;;;;;4.70;3.60;;;;;;;12.31;100.00;96150.63;5084689;28;20059;-64
2022/09/29 03:58:16;;;;;;;8.63;3.78;;;;;;;12.37;100.00;96154.56;5085037;28;20052;-65
2022/09/29 04:00:43;;;;;;;5.22;3.42;;;;;;;11.95;100.00;96088.09;5084538;28;20120;-66
2022/09/29 04:03:10;;;;;;;7.57;3.40;;;;;;;12.09;100.00;96104.72;5084788;28;20091;-65
2022/09/29 04:05:39;;;;;;;4.15;3.40;;;;;;;12.39;100.00;96149.41;5084381;28;20052;-64
2022/09/29 04:08:07;;;;;;;5.20;3.53;;;;;;;12.37;100.00;96154.56;5084912;28;20075;-65
2022/09/29 04:10:37;;;;;;;3.72;3.42;;;;;;;12.28;100.00;96162.56;5084567;28;20056;-65
2022/09/29 04:13:04;;;;;;;5.70;3.42;;;;;;;12.31;100.00;96167.31;5083575;28;20139;-65
2022/09/29 04:15:31;;;;;;;8.25;3.50;;;;;;;12.08;100.00;96130.88;5084359;28;20080;-64
2022/09/29 04:17:58;;;;;;;5.28;3.92;;;;;;;12.42;100.00;96162.50;5084466;28;20147;-64
2022/09/29 04:20:25;;;;;;;7.28;3.97;;;;;;;12.46;100.00;96168.81;5083428;28;20048;-65
2022/09/29 04:22:52;;;;;;;6.65;4.55;;;;;;;12.35;100.00;96162.50;5082885;28;20080;-65
2022/09/29 04:25:19;;;;;;;5.68;3.80;;;;;;;12.44;100.00;96171.19;5083340;28;20458;-65
2022/09/29 04:27:45;;;;;;;9.25;4.25;;;;;;;12.38;100.00;96149.81;5083019;28;20114;-65
2022/09/29 04:30:12;;;;;;;6.78;3.63;;;;;;;12.24;100.00;96117.34;5084551;28;20090;-65
2022/09/29 04:32:39;;;;;;;6.20;3.60;;;;;;;11.69;100.00;96074.72;5084808;28;20080;-64
2022/09/29 04:35:06;;;;;;;5.00;3.72;;;;;;;12.33;100.00;96170.44;5084200;28;20091;-65
2022/09/29 04:37:32;;;;;;;5.00;3.58;;;;;;;12.23;100.00;96171.28;5084475;28;20580;-65
2022/09/29 04:39:59;;;;;;;6.35;3.60;;;;;;;12.38;100.00;96183.91;5082719;28;20595;-65
2022/09/29 04:42:26;;;;;;;5.93;3.90;;;;;;;12.03;100.00;96128.50;5082950;28;20131;-65
2022/09/29 04:44:52;;;;;;;6.97;4.20;;;;;;;12.51;100.00;96185.06;5086110;28;20051;-64
2022/09/29 04:47:19;;;;;;;10.65;6.13;;;;;;;12.53;100.00;96185.47;5087912;28;20475;-64
2022/09/29 04:49:46;;;;;;;14.70;7.38;;;;;;;12.70;100.00;96184.56;5088048;28;20135;-64
2022/09/29 04:52:13;;;;;;;10.93;7.32;;;;;;;12.82;100.00;96186.88;5086651;28;20160;-64
2022/09/29 04:54:39;;;;;;;11.15;6.30;;;;;;;13.00;99.10;96186.78;5088329;28;20168;-65
2022/09/29 04:57:06;;;;;;;13.55;9.50;;;;;;;13.06;98.45;96169.28;5087856;28;20530;-65
2022/09/29 04:59:33;;;;;;;8.93;7.00;;;;;;;13.26;99.41;96183.47;5088183;28;20491;-64
2022/09/29 05:02:00;;;;;;;9.73;6.80;;;;;;;13.33;99.44;96181.41;5087544;28;20549;-65
2022/09/29 05:04:26;;;;;;;13.23;5.78;;;;;;;13.36;99.31;96158.34;5087479;28;20424;-64
2022/09/29 05:06:53;;;;;;;10.70;4.40;;;;;;;13.60;98.42;96187.97;5085895;28;20583;-63
2022/09/29 05:09:20;;;;;;;5.32;3.80;;;;;;;13.78;96.82;96192.56;5087320;28;20313;-64
2022/09/29 05:11:50;;;;;;;7.50;3.38;;;;;;;13.46;95.77;96134.41;5087776;28;20052;-64
2022/09/29 05:14:17;;;;;;;6.07;3.30;;;;;;;13.98;95.71;96208.28;5087231;28;20129;-66
2022/09/29 05:16:43;;;;;;;7.95;4.22;;;;;;;14.03;96.25;96187.53;5087333;28;20087;-65
2022/09/29 05:19:10;;;;;;;4.55;3.75;;;;;;;14.23;94.99;96185.72;5087838;28;20048;-65
2022/09/29 05:21:37;;;;;;;4.70;3.63;;;;;;;14.01;94.76;96148.19;5087199;28;20147;-64
2022/09/29 05:24:04;;;;;;;7.05;3.38;;;;;;;14.57;92.97;96181.00;5086306;28;20502;-66
2022/09/29 05:26:31;;;;;;;5.93;3.45;;;;;;;14.64;92.21;96183.69;5088993;28;20067;-64
2022/09/29 05:29:01;;;;;;;5.80;3.83;;;;;;;14.93;92.09;96179.31;5087281;28;20059;-65
2022/09/29 05:31:27;;;;;;;7.82;3.33;;;;;;;15.12;90.88;96192.59;5087506;28;20087;-63
2022/09/29 05:33:56;;;;;;;6.43;3.30;;;;;;;15.25;90.33;96185.25;5087016;28;20140;-66
2022/09/29 05:36:23;;;;;;;6.30;4.25;;;;;;;15.55;87.71;96188.00;5085758;28;20122;-65
2022/09/29 05:38:50;;;;;;;9.98;5.13;;;;;;;15.74;87.61;96175.31;5087228;28;20106;-65
2022/09/29 05:41:21;;;;;;;22.45;10.25;;;;;;;15.73;86.55;96177.31;5085623;28;20051;-68
2022/09/29 05:43:49;;;;;;;11.38;5.95;;;;;;;15.76;86.77;96158.94;5073031;28;20063;-60
2022/09/29 05:46:18;;;;;;;17.00;7.85;;;;;;;15.51;85.98;96137.00;5085683;28;20048;-61
2022/09/29 05:48:45;;;;;;;10.00;5.95;;;;;;;15.99;83.74;96184.84;5083529;28;20123;-67
2022/09/29 05:51:14;;;;;;;8.40;6.63;;;;;;;14.22;83.51;95911.22;5084004;28;20044;-75
2022/09/29 05:53:47;;;;;;;7.68;6.30;;;;;;;15.99;84.57;96189.63;5078302;28;20059;-71
2022/09/29 05:56:18;;;;;;;11.50;6.18;;;;;;;14.66;83.18;95986.16;5085091;28;20113;-67
2022/09/29 05:58:44;;;;;;;11.95;6.35;;;;;;;15.98;83.18;96149.72;5077606;28;20056;-66
2022/09/29 06:01:14;;;;;;;10.57;6.45;;;;;;;16.11;83.58;96156.28;5079494;28;20128;-62
2022/09/29 06:03:42;;;;;;;6.32;5.72;;;;;;;16.36;83.43;96181.72;5084078;28;20131;-67
2022/09/29 06:06:11;;;;;;;9.25;5.40;;;;;;;16.40;84.01;96182.47;5082879;28;20101;-61
2022/09/29 06:08:38;;;;;;;8.30;6.03;;;;;;;16.63;84.12;96185.22;5086590;28;20192;-61
2022/09/29 06:11:08;;;;;;;5.75;5.00;;;;;;;16.79;84.56;96172.53;5086110;28;20175;-63
2022/09/29 06:13:39;;;;;;;7.20;4.78;;;;;;;16.97;84.72;96181.31;5085548;28;20222;-65
2022/09/29 06:16:07;;;;;;;6.32;4.70;;;;;;;17.08;84.13;96181.88;5084301;28;20084;-64
2022/09/29 06:18:34;;;;;;;7.32;5.28;;;;;;;16.22;85.42;96114.94;5084498;28;20055;-74
2022/09/29 06:21:04;;;;;;;5.93;4.18;;;;;;;16.72;83.14;96201.44;5085371;28;20953;-77
2022/09/29 06:23:31;;;;;;;6.57;4.80;;;;;;;16.42;84.89;96196.78;5085679;28;20105;-66
2022/09/29 06:26:00;;;;;;;4.53;4.07;;;;;;;16.21;85.38;96151.69;5064416;28;20143;-65
2022/09/29 06:28:28;;;;;;;7.07;3.90;;;;;;;16.32;85.41;96185.81;5074133;28;20486;-64
2022/09/29 06:31:03;;;;;;;8.50;4.78;;;;;;;15.73;86.77;96087.94;5085731;28;20139;-69
2022/09/29 06:33:31;;;;;;;7.03;4.68;;;;;;;16.30;85.20;96155.50;5082171;28;20056;-70
2022/09/29 06:38:47;;;;;;;3.90;3.58;;;;;;;17.15;82.78;96184.53;5085896;28;20048;-61
2022/09/29 06:41:14;;;;;;;8.13;4.57;;;;;;;17.24;82.13;96173.50;5083879;28;20125;-60
2022/09/29 06:43:41;;;;;;;4.10;3.70;;;;;;;17.51;81.16;96168.50;5085412;28;20093;-62
2022/09/29 06:46:07;;;;;;;4.47;4.00;;;;;;;17.51;81.82;96165.72;5085737;28;20060;-60
2022/09/29 06:48:34;;;;;;;7.20;4.38;;;;;;;17.77;81.17;96175.84;5084452;28;20055;-65
2022/09/29 06:51:00;;;;;;;5.00;4.20;;;;;;;17.86;79.92;96171.22;5085450;28;20131;-67
2022/09/29 06:53:35;;;;;;;6.47;4.25;;;;;;;18.22;78.66;96176.69;5084190;28;20420;-60
2022/09/29 06:56:04;;;;;;;3.83;3.40;;;;;;;17.35;76.66;96064.88;5085751;28;20147;-61
2022/09/29 06:58:31;;;;;;;6.72;4.30;;;;;;;18.51;76.04;96177.50;5083624;28;20609;-60
2022/09/29 07:01:02;;;;;;;7.97;4.25;;;;;;;18.72;74.87;96171.31;5084841;28;20083;-69
2022/09/29 07:03:29;;;;;;;7.65;5.25;;;;;;;18.95;72.93;96173.81;5084436;28;20056;-62
2022/09/29 07:05:56;;;;;;;9.75;4.85;;;;;;;18.43;71.62;96063.94;5082913;28;20056;-66
2022/09/29 07:08:42;;;;;;;7.22;4.90;;;;;;;19.05;70.73;96139.03;5084570;28;20070;-62
2022/09/29 07:11:09;;;;;;;6.47;5.45;;;;;;;19.62;69.32;96171.00;5084619;28;20060;-61
2022/09/29 07:13:37;;;;;;;5.90;5.32;;;;;;;18.35;69.44;96031.75;5082913;28;20405;-64
2022/09/29 07:16:09;;;;;;;6.53;5.32;;;;;;;19.51;67.25;96188.19;5084434;28;20495;-60
2022/09/29 07:18:39;;;;;;;5.78;4.82;;;;;;;18.98;66.65;96105.59;5084634;28;20062;-67
2022/09/29 07:21:17;;;;;;;5.35;4.82;;;;;;;19.83;66.62;96128.13;5089030;28;20044;-60
2022/09/29 07:23:45;;;;;;;10.90;6.18;;;;;;;19.07;64.73;95973.75;5104892;28;20143;-66
2022/09/29 07:26:15;;;;;;;7.30;5.32;;;;;;;20.36;64.63;96180.56;5083285;28;20048;-65
2022/09/29 07:28:43;;;;;;;5.85;5.32;;;;;;;20.35;63.90;96168.53;5083670;28;20047;-61
2022/09/29 07:31:16;;;;;;;5.75;5.22;;;;;;;18.77;63.21;95893.00;5083073;28;20506;-68
2022/09/29 07:33:45;;;;;;;5.83;4.97;;;;;;;20.78;63.23;96184.66;5079043;28;20155;-62
2022/09/29 07:36:13;;;;;;;6.03;4.80;;;;;;;20.75;61.27;96154.63;5080984;28;20084;-67
2022/09/29 07:38:40;;;;;;;8.43;6.18;;;;;;;19.41;60.86;95911.25;5083432;28;20052;-64
2022/09/29 07:41:12;;;;;;;5.55;4.63;;;;;;;20.63;59.46;96060.56;5083227;28;20505;-66
2022/09/29 07:43:39;;;;;;;5.25;4.75;;;;;;;21.64;59.00;96190.19;5082739;28;20101;-68
2022/09/29 07:46:06;;;;;;;4.93;4.10;;;;;;;20.80;57.15;96132.28;5083577;28;20090;-63
2022/09/29 07:48:34;;;;;;;5.05;4.65;;;;;;;21.07;58.08;96128.88;5083480;28;20043;-66
2022/09/29 07:51:04;;;;;;;10.18;5.03;;;;;;;21.88;57.47;96188.44;5082812;28;20131;-63
2022/09/29 07:53:30;;;;;;;6.18;4.25;;;;;;;21.78;56.09;96147.34;5081352;28;20080;-68
2022/09/29 07:56:17;;;;;;;5.68;5.07;;;;;;;22.37;54.94;96180.72;5083372;28;20136;-65
2022/09/29 07:58:45;;;;;;;5.97;5.47;;;;;;;22.53;53.70;96125.25;5083058;28;20461;-66
2022/09/29 08:01:14;;;;;;;5.40;4.90;;;;;;;22.67;53.11;96130.28;5081966;28;20187;-71
2022/09/29 08:03:47;;;;;;;5.82;4.45;;;;;;;23.01;53.04;96149.69;5080287;28;20070;-63
2022/09/29 08:06:14;;;;;;;6.65;5.38;;;;;;;22.79;52.69;96188.63;5078784;28;20046;-70
2022/09/29 08:08:41;;;;;;;7.00;5.15;;;;;;;21.96;53.77;96048.72;5082729;28;20052;-68
2022/09/29 08:11:22;;;;;;;6.55;5.18;;;;;;;23.23;52.95;96187.78;5080958;28;20155;-64
2022/09/29 08:13:56;;;;;;;5.22;4.75;;;;;;;23.31;52.49;96171.31;5083423;28;20208;-62
2022/09/29 08:16:23;;;;;;;6.63;5.85;;;;;;;23.65;51.57;96187.84;5082988;28;20097;-63
2022/09/29 08:18:50;;;;;;;5.72;5.15;;;;;;;23.61;51.17;96173.09;5085632;28;20043;-71
2022/09/29 08:21:16;;;;;;;5.32;4.82;;;;;;;24.22;50.36;96192.31;5087587;28;20078;-64
2022/09/29 08:23:43;;;;;;;6.05;5.53;;;;;;;24.61;49.66;96174.09;5087134;28;20101;-66
2022/09/29 08:26:18;;;;;;;7.03;5.50;;;;;;;25.09;48.17;96158.63;5086998;28;20048;-69
2022/09/29 08:28:58;;;;;;;6.90;6.25;;;;;;;25.55;46.84;96200.69;5094978;28;20043;-68
2022/09/29 08:31:34;;;;;;;12.88;6.22;;;;;;;24.16;47.43;95969.88;5086532;28;20083;-64
2022/09/29 08:34:00;;;;;;;6.65;6.05;;;;;;;25.51;46.41;96115.03;5087147;28;20055;-63
2022/09/29 08:36:28;;;;;;;16.13;6.22;;;;;;;25.97;45.79;96181.28;5093727;28;20083;-66
2022/09/29 08:38:56;;;;;;;5.57;4.82;;;;;;;24.81;45.90;96179.19;5086590;28;20071;-72
2022/09/29 08:41:43;;;;;;;8.65;6.72;;;;;;;25.00;47.04;96189.88;5086974;28;20094;-67
2022/09/29 08:44:20;;;;;;;9.40;5.05;;;;;;;25.53;46.18;96191.91;5078440;28;20522;-66
2022/09/29 08:47:07;;;;;;;;;;;;;;;25.96;44.90;96189.03;5087322;28;20059;-64
2022/09/29 08:49:44;;;;;;;6.78;6.07;;;;;;;25.06;45.99;96142.59;5085380;28;19924;-64
2022/09/29 08:52:21;;;;;;;5.55;5.05;;;;;;;24.55;46.83;96113.75;5081386;28;20045;-63
2022/09/29 08:54:56;;;;;;;5.80;5.30;;;;;;;24.55;47.13;96156.22;5084443;28;20078;-66
2022/09/29 08:57:23;;;;;;;8.85;5.07;;;;;;;24.64;47.46;96150.50;5086255;28;20058;-65
2022/09/29 08:59:54;;;;;;;5.65;5.15;;;;;;;25.09;46.64;96186.97;5085379;28;20097;-61
2022/09/29 09:02:30;;;;;;;5.68;5.15;;;;;;;25.01;47.11;96191.44;5085071;28;20136;-64
2022/09/29 09:05:07;;;;;;;5.22;4.80;;;;;;;24.45;46.92;96109.44;5085108;28;20060;-65
2022/09/29 09:08:00;;;;;;;5.60;5.10;;;;;;;25.08;46.99;96145.72;5085995;28;20056;-66
2022/09/29 09:10:45;;;;;;;5.63;5.07;;;;;;;25.64;45.33;96180.75;5081998;28;20098;-70
2022/09/29 09:13:31;;;;;;;7.30;5.43;;;;;;;25.87;44.48;96177.78;5085432;28;20052;-69
2022/09/29 09:16:05;;;;;;;5.82;5.32;;;;;;;25.95;44.11;96172.47;5085371;28;20118;-65
2022/09/29 09:19:08;;;;;;;5.90;5.43;;;;;;;25.98;43.76;96174.34;5083701;28;20109;-68
2022/09/29 09:21:46;;;;;;;6.35;5.78;;;;;;;26.19;44.40;96170.31;5085220;28;20079;-60
2022/09/29 09:24:30;;;;;;;5.95;5.50;;;;;;;26.41;42.72;96187.66;5084480;28;20733;-61
2022/09/29 09:26:58;;;;;;;5.63;5.22;;;;;;;26.19;43.67;96176.75;5098633;28;20067;-69
2022/09/29 09:29:35;;;;;;;5.25;4.85;;;;;;;26.06;44.42;96181.19;5084490;28;20083;-64
2022/09/29 09:32:10;;;;;;;6.20;5.70;;;;;;;26.23;44.26;96183.00;5078783;28;20048;-63
2022/09/29 09:34:36;;;;;;;5.82;5.38;;;;;;;26.34;43.32;96227.81;5083680;28;20121;-66
2022/09/29 09:37:10;;;;;;;;;;;;;;;26.42;43.39;96184.31;5085312;28;20493;-68
2022/09/29 09:39:46;;;;;;;28.00;14.48;;;;;;;26.58;43.16;96174.44;5085852;28;20485;-67
2022/09/29 09:42:26;;;;;;;6.40;5.90;;;;;;;26.54;43.45;96157.59;5084355;28;20142;-66
2022/09/29 09:45:04;;;;;;;6.00;5.50;;;;;;;26.48;42.51;96130.41;5084315;28;20506;-66
2022/09/29 09:47:37;;;;;;;5.63;5.00;;;;;;;26.89;42.71;96171.75;5085331;28;20067;-67
2022/09/29 09:50:12;;;;;;;5.47;4.97;;;;;;;26.86;42.05;96144.34;5085872;28;20134;-65
2022/09/29 09:52:58;;;;;;;6.50;5.55;;;;;;;27.34;41.93;96159.63;5085165;28;20059;-61
2022/09/29 09:55:25;;;;;;;6.53;6.03;;;;;;;27.05;42.38;96088.72;5082634;28;20048;-60
2022/09/29 09:58:36;;;;;;;11.90;9.25;;;;;;;27.43;41.11;96153.75;5084971;28;20479;-62
2022/09/29 10:01:09;;;;;;;5.43;4.90;;;;;;;27.49;41.27;96146.03;5083988;28;20086;-63
2022/09/29 10:03:36;;;;;;;5.93;5.53;;;;;;;27.64;41.13;96146.72;5085521;28;20064;-62
2022/09/29 10:06:06;;;;;;;11.20;5.95;;;;;;;27.80;40.69;96136.75;5085840;28;20134;-61
2022/09/29 10:08:38;;;;;;;6.32;5.30;;;;;;;27.63;41.46;96133.75;5084286;28;20070;-60
2022/09/29 10:11:15;;;;;;;5.82;5.43;;;;;;;27.37;40.52;96127.31;5083815;28;20140;-61
2022/09/29 10:13:42;;;;;;;5.63;5.28;;;;;;;26.74;41.73;96065.91;5085993;28;20413;-66
2022/09/29 10:16:17;;;;;;;6.05;5.55;;;;;;;26.23;42.32;96092.16;5085244;28;20533;-62
2022/09/29 10:18:52;;;;;;;6.10;5.70;;;;;;;27.07;41.68;96128.81;5085384;28;20176;-61
2022/09/29 10:21:25;;;;;;;7.43;6.72;;;;;;;27.28;41.82;96130.34;5085203;28;20052;-61
2022/09/29 10:23:53;;;;;;;8.95;5.97;;;;;;;27.41;41.81;96130.72;5085253;28;20160;-60
2022/09/29 10:26:26;;;;;;;5.70;5.13;;;;;;;27.25;41.35;96113.47;5083498;28;20078;-61
2022/09/29 10:28:57;;;;;;;5.13;4.80;;;;;;;27.42;41.08;96122.97;5083899;28;20154;-62
2022/09/29 10:31:30;;;;;;;5.60;5.20;;;;;;;27.31;41.44;96132.19;5083820;28;20079;-61
2022/09/29 10:33:57;;;;;;;6.22;5.82;;;;;;;27.27;41.84;96140.16;5083557;28;20150;-62
2022/09/29 10:36:31;;;;;;;6.10;5.60;;;;;;;26.94;41.80;96136.94;5084593;28;20147;-63
2022/09/29 10:38:58;;;;;;;6.22;5.72;;;;;;;26.77;42.43;96141.66;5085205;28;20495;-61
2022/09/29 10:41:30;;;;;;;6.25;5.07;;;;;;;25.19;43.06;95947.50;5084479;28;20052;-61
2022/09/29 10:44:19;;;;;;;5.82;5.40;;;;;;;26.32;42.10;96111.13;5083407;28;20512;-63
2022/09/29 10:46:53;;;;;;;5.55;5.05;;;;;;;26.55;42.12;96141.34;5085092;28;20055;-69
2022/09/29 10:49:23;;;;;;;4.93;4.53;;;;;;;26.47;42.11;96128.84;5084138;28;20518;-65
2022/09/29 10:51:52;;;;;;;5.45;5.00;;;;;;;26.58;41.94;96134.66;5083168;28;20156;-67
2022/09/29 10:54:24;;;;;;;6.35;5.78;;;;;;;26.73;41.26;96129.72;5084728;28;20480;-66
2022/09/29 10:56:52;;;;;;;5.15;4.75;;;;;;;26.94;41.54;96122.72;5084388;28;20129;-64
2022/09/29 10:59:22;;;;;;;5.18;4.80;;;;;;;27.24;40.46;96124.06;5084550;28;20078;-66
2022/09/29 11:01:53;;;;;;;5.43;5.13;;;;;;;27.10;40.55;96050.25;5084560;28;20156;-62
2022/09/29 11:04:27;;;;;;;5.57;5.15;;;;;;;27.57;38.49;96118.69;5083738;28;20056;-61
2022/09/29 11:06:54;;;;;;;5.90;5.50;;;;;;;26.05;37.97;95890.09;5084308;28;20120;-64
2022/09/29 11:09:21;;;;;;;5.88;4.90;;;;;;;27.88;38.52;96104.47;5084269;28;20123;-63
2022/09/29 11:11:48;;;;;;;5.55;5.15;;;;;;;28.00;37.67;96105.31;5084633;28;20056;-65
2022/09/29 11:14:30;;;;;;;6.43;5.90;;;;;;;28.03;37.12;96099.41;5083173;28;20079;-63
2022/09/29 11:16:59;;;;;;;5.57;5.15;;;;;;;28.07;37.11;96093.47;5077769;28;20605;-61
2022/09/29 11:19:29;;;;;;;5.72;5.35;;;;;;;27.98;35.00;96085.13;5083809;28;20502;-61
2022/09/29 11:22:19;;;;;;;5.85;5.35;;;;;;;27.77;35.08;96035.28;5083745;28;20091;-63
2022/09/29 11:24:52;;;;;;;5.70;5.30;;;;;;;28.09;34.56;96099.41;5084190;28;20232;-62
2022/09/29 11:27:18;;;;;;;6.17;5.77;;;;;;;28.23;33.86;96089.16;5084117;28;20051;-64
2022/09/29 11:30:34;;;;;;;5.63;5.07;;;;;;;28.25;33.85;96093.03;5075271;28;20539;-65
2022/09/29 11:33:17;;;;;;;7.85;5.50;;;;;;;28.44;32.90;96087.72;5080139;28;20139;-61
2022/09/29 11:35:59;;;;;;;5.50;5.10;;;;;;;28.41;32.67;96063.06;5083229;28;20044;-63
2022/09/29 11:38:47;;;;;;;4.90;4.60;;;;;;;28.28;33.00;96099.81;5083781;28;20098;-62
2022/09/29 11:41:24;;;;;;;5.10;4.70;;;;;;;28.11;33.81;96100.47;5084009;28;20441;-62
2022/09/29 11:43:54;;;;;;;6.28;4.60;;;;;;;27.98;34.18;96073.72;5083603;28;20506;-68
2022/09/29 11:46:41;;;;;;;5.38;4.82;;;;;;;28.26;34.29;96082.44;5083886;28;20079;-63
2022/09/29 11:49:34;;;;;;;5.53;5.13;;;;;;;28.39;34.33;96091.31;5082406;28;20517;-63
2022/09/29 11:52:38;;;;;;;5.43;4.90;;;;;;;28.17;33.25;96087.03;5083527;28;20098;-68
2022/09/29 11:55:17;;;;;;;4.90;4.50;;;;;;;27.93;33.33;96089.50;5082111;28;20164;-63
2022/09/29 11:58:01;;;;;;;5.47;4.97;;;;;;;28.01;33.70;96118.28;5083626;28;20051;-60